Belle Plaine Municipal Airport


Codes: KTZT/
Name: Belle Plaine Municipal Airport
City: Belle Plaine
Country: United States
Elevation: 771 ft.

Photos at Belle Plaine Municipal Airport


   Photos courtesy of SpottingLog. You can add your own sightings and photos by signing up for a free trial today.



No photos found.

Weather at Belle Plaine Municipal Airport


Time (UTC)DescriptionTempratureWindCloud coverageVisibilityPressureHumidity
25-Jun-2024 21:00Light Rain33°C7 mph, W77%10000m1007hPa70%
26-Jun-2024 00:00Moderate Rain31°C0 mph, S78%10000m1007hPa75%
26-Jun-2024 03:00Light Rain27°C11 mph, NE40%10000m1008hPa85%
26-Jun-2024 06:00Moderate Rain21°C4 mph, N52%10000m1011hPa96%
26-Jun-2024 09:00Light Rain21°C4 mph, NE100%10000m1009hPa98%
26-Jun-2024 12:00Light Rain21°C4 mph, NE100%10000m1011hPa97%
26-Jun-2024 15:00Light Rain24°C13 mph, NE78%10000m1012hPa82%
26-Jun-2024 18:00Scattered Clouds26°C11 mph, N49%10000m1013hPa55%
26-Jun-2024 21:00Clear Sky26°C11 mph, N0%10000m1013hPa61%
27-Jun-2024 00:00Clear Sky23°C9 mph, N0%10000m1013hPa74%
27-Jun-2024 03:00Clear Sky18°C7 mph, N2%10000m1014hPa87%
27-Jun-2024 06:00Clear Sky16°C7 mph, NE2%10000m1015hPa95%
27-Jun-2024 09:00Scattered Clouds14°C7 mph, NE27%10000m1015hPa95%
27-Jun-2024 12:00Few Clouds15°C2 mph, NE22%10000m1016hPa91%
27-Jun-2024 15:00Broken Clouds20°C7 mph, E82%10000m1015hPa77%
27-Jun-2024 18:00Overcast Clouds22°C7 mph, S91%10000m1014hPa72%
27-Jun-2024 21:00Overcast Clouds21°C4 mph, SE100%10000m1013hPa80%
28-Jun-2024 00:00Overcast Clouds20°C7 mph, SE100%10000m1011hPa86%
28-Jun-2024 03:00Broken Clouds19°C7 mph, SE67%10000m1010hPa94%
28-Jun-2024 06:00Broken Clouds18°C11 mph, SE77%10000m1009hPa93%
28-Jun-2024 09:00Broken Clouds19°C13 mph, SE79%10000m1006hPa81%
28-Jun-2024 12:00Heavy Intensity Rain19°C18 mph, S89%6175m1005hPa96%
28-Jun-2024 15:00Moderate Rain19°C16 mph, S100%3669m1004hPa98%
28-Jun-2024 18:00Light Rain21°C13 mph, S100%10000m1003hPa97%
28-Jun-2024 21:00Light Rain21°C9 mph, S100%10000m1002hPa98%
29-Jun-2024 00:00Light Rain25°C4 mph, W97%10000m1002hPa93%
29-Jun-2024 03:00Scattered Clouds22°C4 mph, W42%10000m1005hPa96%
29-Jun-2024 06:00Few Clouds21°C9 mph, NW24%10000m1007hPa95%
29-Jun-2024 09:00Overcast Clouds18°C9 mph, W85%10000m1009hPa93%
29-Jun-2024 12:00Scattered Clouds17°C9 mph, W42%10000m1012hPa87%
29-Jun-2024 15:00Clear Sky19°C18 mph, NW0%10000m1015hPa75%
29-Jun-2024 18:00Clear Sky19°C20 mph, NW3%10000m1018hPa66%
29-Jun-2024 21:00Clear Sky19°C18 mph, NW0%10000m1020hPa65%
30-Jun-2024 00:00Clear Sky17°C13 mph, NW1%10000m1021hPa76%
30-Jun-2024 03:00Clear Sky13°C11 mph, N0%10000m1023hPa80%
30-Jun-2024 06:00Clear Sky10°C7 mph, N0%10000m1026hPa91%
30-Jun-2024 09:00Clear Sky8°C7 mph, N0%10000m1027hPa95%
30-Jun-2024 12:00Clear Sky9°C7 mph, NE0%10000m1028hPa90%
30-Jun-2024 15:00Clear Sky15°C9 mph, E0%10000m1028hPa71%
30-Jun-2024 18:00Clear Sky19°C9 mph, E0%10000m1027hPa61%